sensor_id;sensor_type;location;lat;lon;timestamp;temperature;humidity
58339;DHT22;48278;52.704;6.536;2022-08-19T00:01:29;15.90;99.90
58339;DHT22;48278;52.704;6.536;2022-08-19T00:03:56;16.00;99.90
58339;DHT22;48278;52.704;6.536;2022-08-19T00:06:22;16.00;99.90
58339;DHT22;48278;52.704;6.536;2022-08-19T00:08:47;15.90;99.90
58339;DHT22;48278;52.704;6.536;2022-08-19T00:11:13;15.90;99.90
58339;DHT22;48278;52.704;6.536;2022-08-19T00:13:38;15.80;99.90
58339;DHT22;48278;52.704;6.536;2022-08-19T00:16:05;15.80;99.90
58339;DHT22;48278;52.704;6.536;2022-08-19T00:18:31;15.80;99.90
58339;DHT22;48278;52.704;6.536;2022-08-19T00:20:57;15.80;99.90
58339;DHT22;48278;52.704;6.536;2022-08-19T00:23:22;15.80;99.90
58339;DHT22;48278;52.704;6.536;2022-08-19T00:25:48;15.80;99.90
58339;DHT22;48278;52.704;6.536;2022-08-19T00:28:13;15.70;99.90
58339;DHT22;48278;52.704;6.536;2022-08-19T00:30:39;15.70;99.90
58339;DHT22;48278;52.704;6.536;2022-08-19T00:33:06;15.60;99.90
58339;DHT22;48278;52.704;6.536;2022-08-19T00:35:32;15.60;99.90
58339;DHT22;48278;52.704;6.536;2022-08-19T00:37:58;15.60;99.90
58339;DHT22;48278;52.704;6.536;2022-08-19T00:40:25;15.50;99.90
58339;DHT22;48278;52.704;6.536;2022-08-19T00:42:50;15.50;99.90
58339;DHT22;48278;52.704;6.536;2022-08-19T00:45:20;15.50;99.90
58339;DHT22;48278;52.704;6.536;2022-08-19T00:47:46;15.50;99.90
58339;DHT22;48278;52.704;6.536;2022-08-19T00:50:12;15.40;99.90
58339;DHT22;48278;52.704;6.536;2022-08-19T00:52:40;15.50;99.90
58339;DHT22;48278;52.704;6.536;2022-08-19T00:55:10;15.40;99.90
58339;DHT22;48278;52.704;6.536;2022-08-19T00:57:38;15.40;99.90
58339;DHT22;48278;52.704;6.536;2022-08-19T01:00:09;15.40;99.90
58339;DHT22;48278;52.704;6.536;2022-08-19T01:02:37;15.40;99.90
58339;DHT22;48278;52.704;6.536;2022-08-19T01:05:05;15.40;99.90
58339;DHT22;48278;52.704;6.536;2022-08-19T01:07:32;15.40;99.90
58339;DHT22;48278;52.704;6.536;2022-08-19T01:09:58;15.40;99.90
58339;DHT22;48278;52.704;6.536;2022-08-19T01:12:24;15.40;99.90
58339;DHT22;48278;52.704;6.536;2022-08-19T01:14:50;15.30;99.90
58339;DHT22;48278;52.704;6.536;2022-08-19T01:17:16;15.30;99.90
58339;DHT22;48278;52.704;6.536;2022-08-19T01:19:43;15.30;99.90
58339;DHT22;48278;52.704;6.536;2022-08-19T01:24:39;15.30;99.90
58339;DHT22;48278;52.704;6.536;2022-08-19T01:27:05;15.20;99.90
58339;DHT22;48278;52.704;6.536;2022-08-19T01:29:31;15.20;99.90
58339;DHT22;48278;52.704;6.536;2022-08-19T01:31:57;15.20;99.90
58339;DHT22;48278;52.704;6.536;2022-08-19T01:34:23;15.20;99.90
58339;DHT22;48278;52.704;6.536;2022-08-19T01:36:49;15.20;99.90
58339;DHT22;48278;52.704;6.536;2022-08-19T01:39:17;15.20;99.90
58339;DHT22;48278;52.704;6.536;2022-08-19T01:41:42;15.10;99.90
58339;DHT22;48278;52.704;6.536;2022-08-19T01:44:08;15.20;99.90
58339;DHT22;48278;52.704;6.536;2022-08-19T01:46:34;15.10;99.90
58339;DHT22;48278;52.704;6.536;2022-08-19T01:49:01;15.10;99.90
58339;DHT22;48278;52.704;6.536;2022-08-19T01:51:27;15.10;99.90
58339;DHT22;48278;52.704;6.536;2022-08-19T01:53:53;15.10;99.90
58339;DHT22;48278;52.704;6.536;2022-08-19T01:56:19;15.00;99.90
58339;DHT22;48278;52.704;6.536;2022-08-19T01:58:51;15.00;99.90
58339;DHT22;48278;52.704;6.536;2022-08-19T02:01:17;15.00;99.90
58339;DHT22;48278;52.704;6.536;2022-08-19T02:03:43;15.00;99.90
58339;DHT22;48278;52.704;6.536;2022-08-19T02:06:08;14.90;99.90
58339;DHT22;48278;52.704;6.536;2022-08-19T02:08:35;14.90;99.90
58339;DHT22;48278;52.704;6.536;2022-08-19T02:11:01;14.90;99.90
58339;DHT22;48278;52.704;6.536;2022-08-19T02:13:26;14.90;99.90
58339;DHT22;48278;52.704;6.536;2022-08-19T02:15:52;14.90;99.90
58339;DHT22;48278;52.704;6.536;2022-08-19T02:18:18;14.90;99.90
58339;DHT22;48278;52.704;6.536;2022-08-19T02:20:44;14.90;99.90
58339;DHT22;48278;52.704;6.536;2022-08-19T02:23:10;14.90;99.90
58339;DHT22;48278;52.704;6.536;2022-08-19T02:25:36;14.80;99.90
58339;DHT22;48278;52.704;6.536;2022-08-19T02:28:02;14.80;99.90
58339;DHT22;48278;52.704;6.536;2022-08-19T02:30:27;14.80;99.90
58339;DHT22;48278;52.704;6.536;2022-08-19T02:32:53;14.80;99.90
58339;DHT22;48278;52.704;6.536;2022-08-19T02:35:19;14.80;99.90
58339;DHT22;48278;52.704;6.536;2022-08-19T02:37:44;14.80;99.90
58339;DHT22;48278;52.704;6.536;2022-08-19T02:40:29;14.80;99.90
58339;DHT22;48278;52.704;6.536;2022-08-19T02:42:55;14.70;99.90
58339;DHT22;48278;52.704;6.536;2022-08-19T02:45:21;14.70;99.90
58339;DHT22;48278;52.704;6.536;2022-08-19T02:47:47;14.70;99.90
58339;DHT22;48278;52.704;6.536;2022-08-19T02:50:12;14.70;99.90
58339;DHT22;48278;52.704;6.536;2022-08-19T02:52:40;14.70;99.90
58339;DHT22;48278;52.704;6.536;2022-08-19T02:55:06;14.70;99.90
58339;DHT22;48278;52.704;6.536;2022-08-19T02:57:32;14.60;99.90
58339;DHT22;48278;52.704;6.536;2022-08-19T02:59:58;14.60;99.90
58339;DHT22;48278;52.704;6.536;2022-08-19T03:02:24;14.60;99.90
58339;DHT22;48278;52.704;6.536;2022-08-19T03:04:50;14.50;99.90
58339;DHT22;48278;52.704;6.536;2022-08-19T03:07:16;14.50;99.90
58339;DHT22;48278;52.704;6.536;2022-08-19T03:09:42;14.50;99.90
58339;DHT22;48278;52.704;6.536;2022-08-19T03:12:07;14.50;99.90
58339;DHT22;48278;52.704;6.536;2022-08-19T03:14:34;14.50;99.90
58339;DHT22;48278;52.704;6.536;2022-08-19T03:16:59;14.50;99.90
58339;DHT22;48278;52.704;6.536;2022-08-19T03:19:26;14.50;99.90
58339;DHT22;48278;52.704;6.536;2022-08-19T03:21:52;14.50;99.90
58339;DHT22;48278;52.704;6.536;2022-08-19T03:24:18;14.50;99.90
58339;DHT22;48278;52.704;6.536;2022-08-19T03:26:46;14.50;99.90
58339;DHT22;48278;52.704;6.536;2022-08-19T03:29:12;14.50;99.90
58339;DHT22;48278;52.704;6.536;2022-08-19T03:31:39;14.40;99.90
58339;DHT22;48278;52.704;6.536;2022-08-19T03:34:05;14.40;99.90
58339;DHT22;48278;52.704;6.536;2022-08-19T03:36:31;14.40;99.90
58339;DHT22;48278;52.704;6.536;2022-08-19T03:38:57;14.40;99.90
58339;DHT22;48278;52.704;6.536;2022-08-19T03:41:25;14.40;99.90
58339;DHT22;48278;52.704;6.536;2022-08-19T03:43:51;14.30;99.90
58339;DHT22;48278;52.704;6.536;2022-08-19T03:46:18;14.30;99.90
58339;DHT22;48278;52.704;6.536;2022-08-19T03:48:46;14.30;99.90
58339;DHT22;48278;52.704;6.536;2022-08-19T03:51:22;14.30;99.90
58339;DHT22;48278;52.704;6.536;2022-08-19T03:53:47;14.30;99.90
58339;DHT22;48278;52.704;6.536;2022-08-19T03:56:13;14.20;99.90
58339;DHT22;48278;52.704;6.536;2022-08-19T03:58:39;14.20;99.90
58339;DHT22;48278;52.704;6.536;2022-08-19T04:01:09;14.20;99.90
58339;DHT22;48278;52.704;6.536;2022-08-19T04:03:35;14.20;99.90
58339;DHT22;48278;52.704;6.536;2022-08-19T04:06:14;14.20;99.90
58339;DHT22;48278;52.704;6.536;2022-08-19T04:08:40;14.20;99.90
58339;DHT22;48278;52.704;6.536;2022-08-19T04:11:08;14.20;99.90
58339;DHT22;48278;52.704;6.536;2022-08-19T04:13:33;14.20;99.90
58339;DHT22;48278;52.704;6.536;2022-08-19T04:15:59;14.20;99.90
58339;DHT22;48278;52.704;6.536;2022-08-19T04:18:25;14.10;99.90
58339;DHT22;48278;52.704;6.536;2022-08-19T04:20:50;14.20;99.90
58339;DHT22;48278;52.704;6.536;2022-08-19T04:23:16;14.20;99.90
58339;DHT22;48278;52.704;6.536;2022-08-19T04:25:43;14.10;99.90
58339;DHT22;48278;52.704;6.536;2022-08-19T04:28:10;14.10;99.90
58339;DHT22;48278;52.704;6.536;2022-08-19T04:30:40;14.10;99.90
58339;DHT22;48278;52.704;6.536;2022-08-19T04:33:06;14.10;99.90
58339;DHT22;48278;52.704;6.536;2022-08-19T04:35:41;14.10;99.90
58339;DHT22;48278;52.704;6.536;2022-08-19T04:38:08;14.10;99.90
58339;DHT22;48278;52.704;6.536;2022-08-19T04:40:34;14.10;99.90
58339;DHT22;48278;52.704;6.536;2022-08-19T04:43:23;14.10;99.90
58339;DHT22;48278;52.704;6.536;2022-08-19T04:45:48;14.10;99.90
58339;DHT22;48278;52.704;6.536;2022-08-19T04:48:15;14.10;99.90
58339;DHT22;48278;52.704;6.536;2022-08-19T04:50:42;14.10;99.90
58339;DHT22;48278;52.704;6.536;2022-08-19T04:53:08;14.20;99.90
58339;DHT22;48278;52.704;6.536;2022-08-19T04:55:34;14.20;99.90
58339;DHT22;48278;52.704;6.536;2022-08-19T04:58:00;14.20;99.90
58339;DHT22;48278;52.704;6.536;2022-08-19T05:00:27;14.20;99.90
58339;DHT22;48278;52.704;6.536;2022-08-19T05:02:53;14.20;99.90
58339;DHT22;48278;52.704;6.536;2022-08-19T05:05:18;14.20;99.90
58339;DHT22;48278;52.704;6.536;2022-08-19T05:07:45;14.30;99.90
58339;DHT22;48278;52.704;6.536;2022-08-19T05:10:10;14.30;99.90
58339;DHT22;48278;52.704;6.536;2022-08-19T05:12:36;14.30;99.90
58339;DHT22;48278;52.704;6.536;2022-08-19T05:15:03;14.30;99.90
58339;DHT22;48278;52.704;6.536;2022-08-19T05:17:29;14.30;99.90
58339;DHT22;48278;52.704;6.536;2022-08-19T05:19:54;14.40;99.90
58339;DHT22;48278;52.704;6.536;2022-08-19T05:22:39;14.40;99.90
58339;DHT22;48278;52.704;6.536;2022-08-19T05:25:06;14.50;99.90
58339;DHT22;48278;52.704;6.536;2022-08-19T05:27:32;14.50;99.90
58339;DHT22;48278;52.704;6.536;2022-08-19T05:29:58;14.60;99.90
58339;DHT22;48278;52.704;6.536;2022-08-19T05:32:24;14.60;99.90
58339;DHT22;48278;52.704;6.536;2022-08-19T05:34:49;14.70;99.90
58339;DHT22;48278;52.704;6.536;2022-08-19T05:37:15;14.80;99.90
58339;DHT22;48278;52.704;6.536;2022-08-19T05:39:42;14.90;99.90
58339;DHT22;48278;52.704;6.536;2022-08-19T05:42:08;14.90;99.90
58339;DHT22;48278;52.704;6.536;2022-08-19T05:44:36;15.00;99.90
58339;DHT22;48278;52.704;6.536;2022-08-19T05:47:03;15.10;99.90
58339;DHT22;48278;52.704;6.536;2022-08-19T05:49:30;15.10;99.90
58339;DHT22;48278;52.704;6.536;2022-08-19T05:51:56;15.20;99.90
58339;DHT22;48278;52.704;6.536;2022-08-19T05:54:22;15.30;99.90
58339;DHT22;48278;52.704;6.536;2022-08-19T05:56:49;15.30;99.90
58339;DHT22;48278;52.704;6.536;2022-08-19T05:59:16;15.40;99.90
58339;DHT22;48278;52.704;6.536;2022-08-19T06:01:43;15.40;99.90
58339;DHT22;48278;52.704;6.536;2022-08-19T06:04:09;15.50;99.90
58339;DHT22;48278;52.704;6.536;2022-08-19T06:06:35;15.50;99.90
58339;DHT22;48278;52.704;6.536;2022-08-19T06:09:05;15.60;99.90
58339;DHT22;48278;52.704;6.536;2022-08-19T06:11:39;15.70;99.90
58339;DHT22;48278;52.704;6.536;2022-08-19T06:14:07;15.70;99.90
58339;DHT22;48278;52.704;6.536;2022-08-19T06:16:34;15.70;99.90
58339;DHT22;48278;52.704;6.536;2022-08-19T06:19:02;15.80;99.90
58339;DHT22;48278;52.704;6.536;2022-08-19T06:21:28;15.80;99.90
58339;DHT22;48278;52.704;6.536;2022-08-19T06:23:55;15.90;99.90
58339;DHT22;48278;52.704;6.536;2022-08-19T06:26:21;16.00;99.90
58339;DHT22;48278;52.704;6.536;2022-08-19T06:28:47;16.00;99.90
58339;DHT22;48278;52.704;6.536;2022-08-19T06:31:14;16.10;99.90
58339;DHT22;48278;52.704;6.536;2022-08-19T06:33:42;16.20;99.90
58339;DHT22;48278;52.704;6.536;2022-08-19T06:36:15;16.20;99.90
58339;DHT22;48278;52.704;6.536;2022-08-19T06:38:41;16.30;99.90
58339;DHT22;48278;52.704;6.536;2022-08-19T06:41:07;16.40;99.90
58339;DHT22;48278;52.704;6.536;2022-08-19T06:43:33;16.50;99.90
58339;DHT22;48278;52.704;6.536;2022-08-19T06:45:59;16.60;99.90
58339;DHT22;48278;52.704;6.536;2022-08-19T06:48:24;16.70;99.90
58339;DHT22;48278;52.704;6.536;2022-08-19T06:50:50;16.80;99.90
58339;DHT22;48278;52.704;6.536;2022-08-19T06:53:17;17.00;99.90
58339;DHT22;48278;52.704;6.536;2022-08-19T06:55:44;17.20;99.90
58339;DHT22;48278;52.704;6.536;2022-08-19T06:58:10;17.30;99.90
58339;DHT22;48278;52.704;6.536;2022-08-19T07:00:36;17.50;99.90
58339;DHT22;48278;52.704;6.536;2022-08-19T07:03:01;17.50;99.90
58339;DHT22;48278;52.704;6.536;2022-08-19T07:05:27;17.60;99.90
58339;DHT22;48278;52.704;6.536;2022-08-19T07:07:53;17.60;99.90
58339;DHT22;48278;52.704;6.536;2022-08-19T07:10:19;17.80;99.90
58339;DHT22;48278;52.704;6.536;2022-08-19T07:12:44;17.90;99.90
58339;DHT22;48278;52.704;6.536;2022-08-19T07:15:11;18.10;99.90
58339;DHT22;48278;52.704;6.536;2022-08-19T07:17:37;18.20;99.90
58339;DHT22;48278;52.704;6.536;2022-08-19T07:20:04;18.30;99.90
58339;DHT22;48278;52.704;6.536;2022-08-19T07:22:30;18.50;99.90
58339;DHT22;48278;52.704;6.536;2022-08-19T07:24:56;18.70;99.90
58339;DHT22;48278;52.704;6.536;2022-08-19T07:27:22;18.70;99.90
58339;DHT22;48278;52.704;6.536;2022-08-19T07:29:47;18.80;99.90
58339;DHT22;48278;52.704;6.536;2022-08-19T07:32:13;19.00;99.90
58339;DHT22;48278;52.704;6.536;2022-08-19T07:34:39;19.10;99.90
58339;DHT22;48278;52.704;6.536;2022-08-19T07:37:05;19.20;99.90
58339;DHT22;48278;52.704;6.536;2022-08-19T07:39:32;19.30;99.90
58339;DHT22;48278;52.704;6.536;2022-08-19T07:41:59;19.40;99.90
58339;DHT22;48278;52.704;6.536;2022-08-19T07:44:25;19.50;99.90
58339;DHT22;48278;52.704;6.536;2022-08-19T07:46:52;19.60;99.90
58339;DHT22;48278;52.704;6.536;2022-08-19T07:49:18;19.70;99.90
58339;DHT22;48278;52.704;6.536;2022-08-19T07:51:45;19.80;99.90
58339;DHT22;48278;52.704;6.536;2022-08-19T07:54:11;19.90;99.90
58339;DHT22;48278;52.704;6.536;2022-08-19T07:56:37;20.00;99.90
58339;DHT22;48278;52.704;6.536;2022-08-19T07:59:03;20.10;99.90
58339;DHT22;48278;52.704;6.536;2022-08-19T08:01:29;20.20;99.90
58339;DHT22;48278;52.704;6.536;2022-08-19T08:03:56;20.30;99.90
58339;DHT22;48278;52.704;6.536;2022-08-19T08:06:41;20.30;99.90
58339;DHT22;48278;52.704;6.536;2022-08-19T08:09:27;20.50;99.90
58339;DHT22;48278;52.704;6.536;2022-08-19T08:14:20;20.60;99.90
58339;DHT22;48278;52.704;6.536;2022-08-19T08:16:48;20.70;99.90
58339;DHT22;48278;52.704;6.536;2022-08-19T08:19:20;20.80;99.90
58339;DHT22;48278;52.704;6.536;2022-08-19T08:21:46;20.80;99.90
58339;DHT22;48278;52.704;6.536;2022-08-19T08:24:11;20.90;99.90
58339;DHT22;48278;52.704;6.536;2022-08-19T08:26:37;21.00;99.90
58339;DHT22;48278;52.704;6.536;2022-08-19T08:29:03;21.10;99.90
58339;DHT22;48278;52.704;6.536;2022-08-19T08:31:29;21.20;99.90
58339;DHT22;48278;52.704;6.536;2022-08-19T08:35:41;21.40;99.90
58339;DHT22;48278;52.704;6.536;2022-08-19T08:38:07;21.50;99.90
58339;DHT22;48278;52.704;6.536;2022-08-19T08:40:45;21.50;99.90
58339;DHT22;48278;52.704;6.536;2022-08-19T08:43:24;21.60;99.90
58339;DHT22;48278;52.704;6.536;2022-08-19T08:45:59;21.60;99.90
58339;DHT22;48278;52.704;6.536;2022-08-19T08:51:18;21.70;99.90
58339;DHT22;48278;52.704;6.536;2022-08-19T08:53:49;21.90;99.90
58339;DHT22;48278;52.704;6.536;2022-08-19T08:56:16;22.00;99.90
58339;DHT22;48278;52.704;6.536;2022-08-19T08:58:56;22.00;99.90
58339;DHT22;48278;52.704;6.536;2022-08-19T09:01:23;22.00;99.90
58339;DHT22;48278;52.704;6.536;2022-08-19T09:03:49;22.10;99.90
58339;DHT22;48278;52.704;6.536;2022-08-19T09:09:05;22.20;99.90
58339;DHT22;48278;52.704;6.536;2022-08-19T09:17:08;22.40;99.90
58339;DHT22;48278;52.704;6.536;2022-08-19T09:19:35;22.50;99.90
58339;DHT22;48278;52.704;6.536;2022-08-19T09:22:01;22.60;99.90
58339;DHT22;48278;52.704;6.536;2022-08-19T09:24:27;22.60;99.90
58339;DHT22;48278;52.704;6.536;2022-08-19T09:26:53;22.60;99.90
58339;DHT22;48278;52.704;6.536;2022-08-19T09:29:19;22.70;99.90
58339;DHT22;48278;52.704;6.536;2022-08-19T09:31:46;22.70;99.90
58339;DHT22;48278;52.704;6.536;2022-08-19T09:34:12;22.80;99.90
58339;DHT22;48278;52.704;6.536;2022-08-19T09:36:37;22.80;99.90
58339;DHT22;48278;52.704;6.536;2022-08-19T09:39:05;22.90;99.90
58339;DHT22;48278;52.704;6.536;2022-08-19T09:41:31;23.00;99.90
58339;DHT22;48278;52.704;6.536;2022-08-19T09:44:00;23.10;99.90
58339;DHT22;48278;52.704;6.536;2022-08-19T09:46:28;23.20;99.90
58339;DHT22;48278;52.704;6.536;2022-08-19T09:48:54;23.20;99.90
58339;DHT22;48278;52.704;6.536;2022-08-19T09:51:25;23.20;99.90
58339;DHT22;48278;52.704;6.536;2022-08-19T09:53:54;23.30;99.90
58339;DHT22;48278;52.704;6.536;2022-08-19T09:56:20;23.40;99.90
58339;DHT22;48278;52.704;6.536;2022-08-19T09:58:46;23.50;99.90
58339;DHT22;48278;52.704;6.536;2022-08-19T10:01:18;23.50;99.90
58339;DHT22;48278;52.704;6.536;2022-08-19T10:03:53;23.50;99.90
58339;DHT22;48278;52.704;6.536;2022-08-19T10:06:22;23.70;99.90
58339;DHT22;48278;52.704;6.536;2022-08-19T10:08:48;23.60;99.90
58339;DHT22;48278;52.704;6.536;2022-08-19T10:11:14;23.70;99.90
58339;DHT22;48278;52.704;6.536;2022-08-19T10:13:42;23.80;99.90
58339;DHT22;48278;52.704;6.536;2022-08-19T10:16:19;23.80;99.90
58339;DHT22;48278;52.704;6.536;2022-08-19T10:18:46;23.90;99.90
58339;DHT22;48278;52.704;6.536;2022-08-19T10:21:18;24.00;99.90
58339;DHT22;48278;52.704;6.536;2022-08-19T10:23:48;24.00;99.90
58339;DHT22;48278;52.704;6.536;2022-08-19T10:26:16;24.00;99.90
58339;DHT22;48278;52.704;6.536;2022-08-19T10:28:43;24.10;99.90
58339;DHT22;48278;52.704;6.536;2022-08-19T10:31:17;24.00;99.90
58339;DHT22;48278;52.704;6.536;2022-08-19T10:33:46;24.00;99.90
58339;DHT22;48278;52.704;6.536;2022-08-19T10:36:18;24.10;99.90
58339;DHT22;48278;52.704;6.536;2022-08-19T10:38:46;24.20;99.90
58339;DHT22;48278;52.704;6.536;2022-08-19T10:41:21;24.30;99.90
58339;DHT22;48278;52.704;6.536;2022-08-19T10:43:52;24.40;99.90
58339;DHT22;48278;52.704;6.536;2022-08-19T10:46:22;24.40;99.90
58339;DHT22;48278;52.704;6.536;2022-08-19T10:48:49;24.40;99.90
58339;DHT22;48278;52.704;6.536;2022-08-19T10:51:15;24.60;99.90
58339;DHT22;48278;52.704;6.536;2022-08-19T10:54:01;24.70;99.90
58339;DHT22;48278;52.704;6.536;2022-08-19T10:56:28;24.70;99.90
58339;DHT22;48278;52.704;6.536;2022-08-19T10:59:15;24.80;99.90
58339;DHT22;48278;52.704;6.536;2022-08-19T11:01:43;24.80;99.90
58339;DHT22;48278;52.704;6.536;2022-08-19T11:04:09;24.80;99.90
58339;DHT22;48278;52.704;6.536;2022-08-19T11:06:39;24.90;99.90
58339;DHT22;48278;52.704;6.536;2022-08-19T11:09:06;24.90;99.90
58339;DHT22;48278;52.704;6.536;2022-08-19T11:11:32;24.90;99.90
58339;DHT22;48278;52.704;6.536;2022-08-19T11:14:06;25.10;99.90
58339;DHT22;48278;52.704;6.536;2022-08-19T11:16:31;25.20;99.90
58339;DHT22;48278;52.704;6.536;2022-08-19T11:18:59;25.20;99.90
58339;DHT22;48278;52.704;6.536;2022-08-19T11:21:28;25.40;99.90
58339;DHT22;48278;52.704;6.536;2022-08-19T11:23:57;25.30;99.90
58339;DHT22;48278;52.704;6.536;2022-08-19T11:26:24;25.40;99.90
58339;DHT22;48278;52.704;6.536;2022-08-19T11:28:50;25.30;99.90
58339;DHT22;48278;52.704;6.536;2022-08-19T11:31:21;25.30;99.90
58339;DHT22;48278;52.704;6.536;2022-08-19T11:33:47;25.40;99.90
58339;DHT22;48278;52.704;6.536;2022-08-19T11:36:17;25.50;99.90
58339;DHT22;48278;52.704;6.536;2022-08-19T11:38:48;25.60;99.90
58339;DHT22;48278;52.704;6.536;2022-08-19T11:41:16;25.70;99.90
58339;DHT22;48278;52.704;6.536;2022-08-19T11:43:42;25.80;99.90
58339;DHT22;48278;52.704;6.536;2022-08-19T11:46:13;25.70;99.90
58339;DHT22;48278;52.704;6.536;2022-08-19T11:48:40;25.70;99.90
58339;DHT22;48278;52.704;6.536;2022-08-19T11:51:10;25.70;99.90
58339;DHT22;48278;52.704;6.536;2022-08-19T11:53:37;25.60;99.90
58339;DHT22;48278;52.704;6.536;2022-08-19T11:56:04;25.70;99.90
58339;DHT22;48278;52.704;6.536;2022-08-19T11:58:31;25.90;99.90
58339;DHT22;48278;52.704;6.536;2022-08-19T12:00:57;26.10;99.90
58339;DHT22;48278;52.704;6.536;2022-08-19T12:03:23;26.10;99.90
58339;DHT22;48278;52.704;6.536;2022-08-19T12:05:49;26.00;99.90
58339;DHT22;48278;52.704;6.536;2022-08-19T12:08:16;26.00;99.90
58339;DHT22;48278;52.704;6.536;2022-08-19T12:10:43;26.00;99.90
58339;DHT22;48278;52.704;6.536;2022-08-19T12:13:10;26.00;99.90
58339;DHT22;48278;52.704;6.536;2022-08-19T12:15:37;26.10;99.90
58339;DHT22;48278;52.704;6.536;2022-08-19T12:18:04;25.90;99.20
58339;DHT22;48278;52.704;6.536;2022-08-19T12:20:30;26.00;99.50
58339;DHT22;48278;52.704;6.536;2022-08-19T12:22:56;26.00;99.00
58339;DHT22;48278;52.704;6.536;2022-08-19T12:25:22;26.10;97.50
58339;DHT22;48278;52.704;6.536;2022-08-19T12:27:48;26.00;96.40
58339;DHT22;48278;52.704;6.536;2022-08-19T12:30:15;26.00;96.60
58339;DHT22;48278;52.704;6.536;2022-08-19T12:32:41;26.00;96.60
58339;DHT22;48278;52.704;6.536;2022-08-19T12:35:07;26.10;97.20
58339;DHT22;48278;52.704;6.536;2022-08-19T12:37:34;26.20;97.40
58339;DHT22;48278;52.704;6.536;2022-08-19T12:40:00;26.30;96.20
58339;DHT22;48278;52.704;6.536;2022-08-19T12:42:26;26.40;97.80
58339;DHT22;48278;52.704;6.536;2022-08-19T12:44:52;26.50;97.20
58339;DHT22;48278;52.704;6.536;2022-08-19T12:47:18;26.60;97.60
58339;DHT22;48278;52.704;6.536;2022-08-19T12:49:44;26.50;97.20
58339;DHT22;48278;52.704;6.536;2022-08-19T12:52:11;26.50;97.30
58339;DHT22;48278;52.704;6.536;2022-08-19T12:54:49;26.50;98.20
58339;DHT22;48278;52.704;6.536;2022-08-19T12:57:16;26.50;98.50
58339;DHT22;48278;52.704;6.536;2022-08-19T12:59:42;26.40;98.10
58339;DHT22;48278;52.704;6.536;2022-08-19T13:02:11;26.60;97.90
58339;DHT22;48278;52.704;6.536;2022-08-19T13:04:37;26.60;97.00
58339;DHT22;48278;52.704;6.536;2022-08-19T13:07:09;26.50;97.20
58339;DHT22;48278;52.704;6.536;2022-08-19T13:09:35;26.50;96.50
58339;DHT22;48278;52.704;6.536;2022-08-19T13:12:01;26.60;96.20
58339;DHT22;48278;52.704;6.536;2022-08-19T13:14:29;26.50;95.90
58339;DHT22;48278;52.704;6.536;2022-08-19T13:16:56;26.60;95.50
58339;DHT22;48278;52.704;6.536;2022-08-19T13:19:22;26.70;96.60
58339;DHT22;48278;52.704;6.536;2022-08-19T13:21:50;26.70;96.70
58339;DHT22;48278;52.704;6.536;2022-08-19T13:24:16;26.70;97.80
58339;DHT22;48278;52.704;6.536;2022-08-19T13:26:42;26.80;97.20
58339;DHT22;48278;52.704;6.536;2022-08-19T13:29:08;26.60;97.20
58339;DHT22;48278;52.704;6.536;2022-08-19T13:31:52;26.60;97.80
58339;DHT22;48278;52.704;6.536;2022-08-19T13:34:36;26.60;98.00
58339;DHT22;48278;52.704;6.536;2022-08-19T13:37:03;26.80;97.90
58339;DHT22;48278;52.704;6.536;2022-08-19T13:39:30;27.00;97.50
58339;DHT22;48278;52.704;6.536;2022-08-19T13:41:58;27.00;96.30
58339;DHT22;48278;52.704;6.536;2022-08-19T13:44:26;27.00;96.70
58339;DHT22;48278;52.704;6.536;2022-08-19T13:46:59;27.10;97.10
58339;DHT22;48278;52.704;6.536;2022-08-19T13:49:27;27.10;96.30
58339;DHT22;48278;52.704;6.536;2022-08-19T13:51:55;27.30;97.00
58339;DHT22;48278;52.704;6.536;2022-08-19T13:54:21;27.50;96.60
58339;DHT22;48278;52.704;6.536;2022-08-19T13:56:47;27.50;96.20
58339;DHT22;48278;52.704;6.536;2022-08-19T13:59:12;27.40;95.30
58339;DHT22;48278;52.704;6.536;2022-08-19T14:01:39;27.00;96.20
58339;DHT22;48278;52.704;6.536;2022-08-19T14:04:05;27.20;96.30
58339;DHT22;48278;52.704;6.536;2022-08-19T14:06:32;27.20;96.00
58339;DHT22;48278;52.704;6.536;2022-08-19T14:08:58;27.10;96.00
58339;DHT22;48278;52.704;6.536;2022-08-19T14:11:25;27.20;96.00
58339;DHT22;48278;52.704;6.536;2022-08-19T14:13:51;27.30;96.00
58339;DHT22;48278;52.704;6.536;2022-08-19T14:16:17;27.40;95.60
58339;DHT22;48278;52.704;6.536;2022-08-19T14:18:43;27.30;93.80
58339;DHT22;48278;52.704;6.536;2022-08-19T14:21:20;27.30;94.80
58339;DHT22;48278;52.704;6.536;2022-08-19T14:23:49;27.50;94.20
58339;DHT22;48278;52.704;6.536;2022-08-19T14:26:17;27.40;93.50
58339;DHT22;48278;52.704;6.536;2022-08-19T14:28:43;27.50;94.30
58339;DHT22;48278;52.704;6.536;2022-08-19T14:31:11;27.60;93.40
58339;DHT22;48278;52.704;6.536;2022-08-19T14:33:37;27.40;94.10
58339;DHT22;48278;52.704;6.536;2022-08-19T14:36:04;27.10;94.60
58339;DHT22;48278;52.704;6.536;2022-08-19T14:38:30;27.00;95.40
58339;DHT22;48278;52.704;6.536;2022-08-19T14:41:15;26.80;95.40
58339;DHT22;48278;52.704;6.536;2022-08-19T14:43:43;26.60;96.90
58339;DHT22;48278;52.704;6.536;2022-08-19T14:46:15;26.60;97.00
58339;DHT22;48278;52.704;6.536;2022-08-19T14:48:42;26.50;97.30
58339;DHT22;48278;52.704;6.536;2022-08-19T14:51:09;26.60;97.10
58339;DHT22;48278;52.704;6.536;2022-08-19T14:53:35;26.60;97.20
58339;DHT22;48278;52.704;6.536;2022-08-19T14:56:01;26.50;97.10
58339;DHT22;48278;52.704;6.536;2022-08-19T14:58:32;26.40;97.20
58339;DHT22;48278;52.704;6.536;2022-08-19T15:00:58;26.20;96.90
58339;DHT22;48278;52.704;6.536;2022-08-19T15:03:25;26.10;97.30
58339;DHT22;48278;52.704;6.536;2022-08-19T15:05:51;26.00;98.10
58339;DHT22;48278;52.704;6.536;2022-08-19T15:08:17;26.00;98.40
58339;DHT22;48278;52.704;6.536;2022-08-19T15:10:42;26.00;98.50
58339;DHT22;48278;52.704;6.536;2022-08-19T15:13:08;25.90;98.50
58339;DHT22;48278;52.704;6.536;2022-08-19T15:15:34;25.90;98.20
58339;DHT22;48278;52.704;6.536;2022-08-19T15:18:00;26.00;98.40
58339;DHT22;48278;52.704;6.536;2022-08-19T15:20:28;25.90;98.80
58339;DHT22;48278;52.704;6.536;2022-08-19T15:22:54;25.90;99.10
58339;DHT22;48278;52.704;6.536;2022-08-19T15:25:20;25.80;99.30
58339;DHT22;48278;52.704;6.536;2022-08-19T15:27:47;25.70;99.80
58339;DHT22;48278;52.704;6.536;2022-08-19T15:30:20;25.70;99.90
58339;DHT22;48278;52.704;6.536;2022-08-19T15:32:47;25.60;99.90
58339;DHT22;48278;52.704;6.536;2022-08-19T15:35:13;25.50;99.90
58339;DHT22;48278;52.704;6.536;2022-08-19T15:37:39;25.40;99.90
58339;DHT22;48278;52.704;6.536;2022-08-19T15:40:06;25.40;99.90
58339;DHT22;48278;52.704;6.536;2022-08-19T15:42:35;25.40;99.90
58339;DHT22;48278;52.704;6.536;2022-08-19T15:45:05;25.40;99.90
58339;DHT22;48278;52.704;6.536;2022-08-19T15:47:31;25.40;99.90
58339;DHT22;48278;52.704;6.536;2022-08-19T15:49:57;25.20;99.90